Time;durP1;ratioP1;P1;durP2;ratioP2;P2;SDS_P1;SDS_P2;PMS_P1;PMS_P2;Temp;Humidity;BMP_temperature;BMP_pressure;BME280_temperature;BME280_humidity;BME280_pressure;Samples;Min_cycle;Max_cycle;Signal;HPM_P1;HPM_P2
2022/09/02 03:47:50;;;;;;;5.53;4.50;;;15.00;99.90;;;;;;5945780;23;20379;-75
2022/09/02 03:50:17;;;;;;;7.43;3.93;;;15.10;99.90;;;;;;4949848;28;20464;-75
2022/09/02 03:52:44;;;;;;;5.20;3.80;;;15.00;99.90;;;;;;4950319;28;20520;-76
2022/09/02 03:55:11;;;;;;;8.73;4.37;;;15.00;99.90;;;;;;4949262;28;20457;-79
2022/09/02 03:57:38;;;;;;;6.20;4.10;;;15.00;99.90;;;;;;4949911;28;20461;-75
2022/09/02 04:00:07;;;;;;;4.30;3.90;;;15.00;99.90;;;;;;4950039;29;20468;-77
2022/09/02 04:02:34;;;;;;;8.70;4.10;;;15.00;99.90;;;;;;4949469;29;21008;-77
2022/09/02 04:05:03;;;;;;;7.43;4.13;;;15.00;99.90;;;;;;4949041;29;20497;-77
2022/09/02 04:07:30;;;;;;;6.57;3.80;;;15.00;99.90;;;;;;4949866;28;20465;-77
2022/09/02 04:09:57;;;;;;;6.13;4.20;;;15.00;99.90;;;;;;4949516;29;20457;-75
2022/09/02 04:12:24;;;;;;;4.80;4.30;;;15.00;99.90;;;;;;4949465;29;20468;-76
2022/09/02 04:14:50;;;;;;;5.30;3.53;;;15.00;99.90;;;;;;4948861;29;20832;-76
2022/09/02 04:20:50;;;;;;;6.30;4.20;;;15.00;99.90;;;;;;4949359;29;20890;-76
2022/09/02 04:23:17;;;;;;;5.80;4.07;;;14.90;99.90;;;;;;4948854;28;20471;-75
2022/09/02 04:25:44;;;;;;;6.87;4.33;;;14.90;99.90;;;;;;4948708;29;20497;-77
2022/09/02 04:28:11;;;;;;;5.37;4.30;;;14.90;99.90;;;;;;4948850;28;20486;-75
2022/09/02 04:30:39;;;;;;;4.67;4.13;;;14.90;99.90;;;;;;4949515;28;20516;-75
2022/09/02 04:33:06;;;;;;;4.67;4.13;;;14.90;99.90;;;;;;4949066;29;20473;-75
2022/09/02 04:35:34;;;;;;;4.50;4.10;;;14.90;99.90;;;;;;4950022;29;20958;-80
2022/09/02 04:38:03;;;;;;;7.33;4.90;;;14.90;99.90;;;;;;4952251;28;20488;-80
2022/09/02 04:40:30;;;;;;;4.60;4.00;;;14.80;99.90;;;;;;4950334;29;20466;-80
2022/09/02 04:42:57;;;;;;;5.40;4.73;;;14.80;99.90;;;;;;4950521;29;20461;-80
2022/09/02 04:45:24;;;;;;;5.43;4.87;;;14.80;99.90;;;;;;4950147;28;20800;-80
2022/09/02 04:47:50;;;;;;;7.40;5.40;;;14.80;99.90;;;;;;4950768;28;20493;-80
2022/09/02 04:50:17;;;;;;;6.40;4.80;;;14.80;99.90;;;;;;4951513;28;20821;-80
2022/09/02 04:52:44;;;;;;;5.10;4.53;;;14.80;99.90;;;;;;4950997;29;21275;-80
2022/09/02 04:55:12;;;;;;;5.70;4.13;;;14.80;99.90;;;;;;4951345;29;20556;-80
2022/09/02 04:57:39;;;;;;;4.80;4.10;;;14.80;99.90;;;;;;4950883;28;20465;-80
2022/09/02 05:00:08;;;;;;;6.00;4.80;;;14.90;99.90;;;;;;4950446;29;20961;-80
2022/09/02 05:02:35;;;;;;;4.53;4.13;;;14.80;99.90;;;;;;4950748;29;20461;-80
2022/09/02 05:05:02;;;;;;;4.63;4.27;;;14.80;99.90;;;;;;4950673;29;20497;-80
2022/09/02 05:07:29;;;;;;;5.23;4.20;;;14.80;99.90;;;;;;4950871;28;20464;-80
2022/09/02 05:09:56;;;;;;;4.97;4.17;;;14.80;99.90;;;;;;4951796;29;20844;-80
2022/09/02 05:12:26;;;;;;;5.47;4.70;;;14.80;99.90;;;;;;4950405;29;20461;-80
2022/09/02 05:14:54;;;;;;;7.73;5.00;;;14.80;99.90;;;;;;4950664;29;20513;-80
2022/09/02 05:17:21;;;;;;;5.03;4.53;;;14.80;99.90;;;;;;4950457;29;20472;-80
2022/09/02 05:19:48;;;;;;;4.60;4.20;;;14.80;99.90;;;;;;4950116;28;21052;-80
2022/09/02 05:22:15;;;;;;;5.80;4.23;;;14.80;99.90;;;;;;4950255;29;21040;-80
2022/09/02 05:24:42;;;;;;;6.90;4.37;;;14.70;99.90;;;;;;4950077;29;20853;-80
2022/09/02 05:27:09;;;;;;;4.80;4.40;;;14.70;99.90;;;;;;4950824;29;20877;-80
2022/09/02 05:29:37;;;;;;;4.60;4.20;;;14.70;99.90;;;;;;4950881;28;20486;-80
2022/09/02 05:32:06;;;;;;;5.30;4.80;;;14.70;99.90;;;;;;4950608;29;20855;-80
2022/09/02 05:34:34;;;;;;;5.27;4.77;;;14.70;99.90;;;;;;4950893;29;20457;-80
2022/09/02 05:37:01;;;;;;;6.60;5.13;;;14.80;99.90;;;;;;4950686;29;20505;-80
2022/09/02 05:39:29;;;;;;;6.63;5.33;;;14.80;99.90;;;;;;4950938;28;20491;-80
2022/09/02 05:41:56;;;;;;;5.13;4.63;;;14.70;99.90;;;;;;4950716;29;20599;-80
2022/09/02 05:44:23;;;;;;;5.20;4.70;;;14.70;99.90;;;;;;4949241;29;20472;-80
2022/09/02 05:46:51;;;;;;;5.40;4.90;;;14.60;99.90;;;;;;4950352;29;20473;-80
2022/09/02 05:49:20;;;;;;;5.60;4.90;;;14.60;99.90;;;;;;4950778;28;20907;-80
2022/09/02 05:51:49;;;;;;;6.23;4.87;;;14.60;99.90;;;;;;4950575;29;21211;-80
2022/09/02 05:54:18;;;;;;;6.40;4.80;;;14.60;99.90;;;;;;4949644;28;20524;-80
2022/09/02 05:56:49;;;;;;;5.00;4.50;;;14.70;99.90;;;;;;4950240;29;20473;-80
2022/09/02 05:59:17;;;;;;;6.43;4.90;;;14.70;99.90;;;;;;4950414;28;20492;-80
2022/09/02 06:01:44;;;;;;;6.60;5.70;;;14.70;99.90;;;;;;4950740;28;20466;-80
2022/09/02 06:04:12;;;;;;;7.50;4.60;;;14.70;99.90;;;;;;4949973;29;20478;-80
2022/09/02 06:06:39;;;;;;;5.53;5.03;;;14.70;99.90;;;;;;4950918;29;20489;-80
2022/09/02 06:09:08;;;;;;;4.57;4.17;;;14.80;99.90;;;;;;4949885;28;20552;-80
2022/09/02 06:11:38;;;;;;;6.70;3.83;;;14.80;99.90;;;;;;4950974;29;20465;-80
2022/09/02 06:14:06;;;;;;;4.93;4.17;;;14.80;99.90;;;;;;4950194;29;21353;-80
2022/09/02 06:16:35;;;;;;;5.13;4.63;;;14.80;99.90;;;;;;4950596;28;20851;-80
2022/09/02 06:19:02;;;;;;;4.60;4.17;;;14.90;99.90;;;;;;4951409;28;20485;-80
2022/09/02 06:21:31;;;;;;;5.00;4.13;;;14.90;99.90;;;;;;4951601;29;20463;-80
2022/09/02 06:23:59;;;;;;;4.53;4.10;;;14.90;99.90;;;;;;4950579;29;20785;-80
2022/09/02 06:26:26;;;;;;;5.00;4.03;;;15.00;99.90;;;;;;4952626;29;20507;-80
2022/09/02 06:28:53;;;;;;;5.07;4.20;;;15.00;99.90;;;;;;4952285;28;20489;-80
2022/09/02 06:31:22;;;;;;;4.37;3.97;;;15.00;99.90;;;;;;4952458;29;20468;-80
2022/09/02 06:33:52;;;;;;;5.37;4.70;;;15.00;99.90;;;;;;4951907;29;20462;-80
2022/09/02 06:36:20;;;;;;;4.47;3.97;;;15.10;99.90;;;;;;4951109;29;20450;-80
2022/09/02 06:38:50;;;;;;;5.53;4.00;;;15.10;99.90;;;;;;4951131;28;20489;-80
2022/09/02 06:41:22;;;;;;;7.70;4.30;;;15.20;99.90;;;;;;4951830;29;20454;-79
2022/09/02 06:43:51;;;;;;;5.00;4.13;;;15.20;99.90;;;;;;4952467;29;20497;-80
2022/09/02 06:46:21;;;;;;;4.60;3.83;;;15.30;99.90;;;;;;4951965;29;20556;-80
2022/09/02 06:48:49;;;;;;;5.43;4.07;;;15.30;99.90;;;;;;4951997;28;20504;-80
2022/09/02 06:51:17;;;;;;;4.90;3.67;;;15.40;99.90;;;;;;4951864;29;20466;-80
2022/09/02 06:53:44;;;;;;;3.90;3.50;;;15.40;99.90;;;;;;4951464;29;20879;-80
2022/09/02 06:56:12;;;;;;;4.83;3.53;;;15.50;99.90;;;;;;4951006;29;20457;-80
2022/09/02 06:58:39;;;;;;;6.27;3.90;;;15.60;99.90;;;;;;4951546;28;20653;-80
2022/09/02 07:01:07;;;;;;;3.80;3.40;;;15.60;99.90;;;;;;4951509;29;20504;-80
2022/09/02 07:06:19;;;;;;;3.60;3.30;;;15.80;99.90;;;;;;4951536;29;20473;-80
2022/09/02 07:08:45;;;;;;;4.47;3.70;;;15.80;99.90;;;;;;4951725;28;20482;-80
2022/09/02 07:11:20;;;;;;;3.70;2.83;;;15.90;99.90;;;;;;4952292;29;20540;-80
2022/09/02 07:13:47;;;;;;;6.40;3.40;;;16.00;99.90;;;;;;4954016;28;21035;-80
2022/09/02 07:16:14;;;;;;;3.27;2.97;;;16.10;99.90;;;;;;4955682;29;20970;-80
2022/09/02 07:18:41;;;;;;;4.70;3.33;;;16.20;99.90;;;;;;4956087;28;20486;-80
2022/09/02 07:21:09;;;;;;;3.47;3.13;;;16.20;99.90;;;;;;4956370;28;20469;-80
2022/09/02 07:23:36;;;;;;;3.20;3.00;;;16.30;99.90;;;;;;4956332;29;20461;-80
2022/09/02 07:26:03;;;;;;;4.17;3.30;;;16.40;99.90;;;;;;4956426;29;20496;-80
2022/09/02 07:28:32;;;;;;;4.80;3.10;;;16.50;99.90;;;;;;4955913;28;20544;-80
2022/09/02 07:30:59;;;;;;;3.50;3.00;;;16.60;99.90;;;;;;4956465;28;20551;-80
2022/09/02 07:33:26;;;;;;;5.67;3.00;;;16.60;99.90;;;;;;4956218;29;20476;-80
2022/09/02 07:35:53;;;;;;;5.53;2.73;;;16.70;99.90;;;;;;4955449;29;20630;-80
2022/09/02 07:38:20;;;;;;;4.17;3.20;;;16.80;99.90;;;;;;4956342;28;20478;-80
2022/09/02 07:40:47;;;;;;;2.83;2.60;;;16.90;99.90;;;;;;4957103;29;20476;-80
2022/09/02 07:43:14;;;;;;;8.10;3.40;;;17.00;99.90;;;;;;4956282;29;20949;-80
2022/09/02 07:45:43;;;;;;;3.63;2.70;;;17.10;99.90;;;;;;4956115;29;21064;-80
2022/09/02 07:48:10;;;;;;;5.10;2.90;;;17.10;99.90;;;;;;4956573;28;20543;-80
2022/09/02 07:50:37;;;;;;;3.50;2.70;;;17.20;99.90;;;;;;4957424;29;20559;-80
2022/09/02 07:53:05;;;;;;;3.90;2.50;;;17.30;99.90;;;;;;4956573;29;20471;-80
2022/09/02 07:55:33;;;;;;;3.20;2.90;;;17.40;99.90;;;;;;4955407;29;20472;-80
2022/09/02 07:58:00;;;;;;;5.23;2.70;;;17.50;99.90;;;;;;4957746;28;20513;-80
2022/09/02 08:00:28;;;;;;;3.07;2.77;;;17.60;99.90;;;;;;4957306;29;20461;-81
2022/09/02 08:02:57;;;;;;;4.60;2.70;;;17.70;99.90;;;;;;4956643;28;20465;-80
2022/09/02 08:05:24;;;;;;;3.20;2.87;;;17.80;99.90;;;;;;4955984;29;20569;-80
2022/09/02 08:07:52;;;;;;;2.10;1.90;;;17.90;99.90;;;;;;4956011;28;21037;-81
2022/09/02 08:10:19;;;;;;;2.60;2.40;;;18.10;99.90;;;;;;4956316;29;20492;-80
2022/09/02 08:12:47;;;;;;;7.30;3.43;;;18.20;99.90;;;;;;4956906;29;20492;-81
2022/09/02 08:15:15;;;;;;;2.43;2.20;;;18.30;99.90;;;;;;4955344;29;20465;-81
2022/09/02 08:17:43;;;;;;;2.53;2.00;;;18.40;99.90;;;;;;4955882;28;20472;-81
2022/09/02 08:20:12;;;;;;;3.90;2.40;;;18.60;99.90;;;;;;4956817;29;20461;-81
2022/09/02 08:22:40;;;;;;;2.07;1.90;;;18.80;99.90;;;;;;4956036;28;20472;-81
2022/09/02 08:25:08;;;;;;;2.20;1.80;;;19.00;99.90;;;;;;4955595;28;20472;-82
2022/09/02 08:27:35;;;;;;;3.87;2.03;;;19.20;99.90;;;;;;4955967;28;20457;-82
2022/09/02 08:30:02;;;;;;;2.47;1.93;;;19.40;99.90;;;;;;4955656;29;20872;-82
2022/09/02 08:32:29;;;;;;;2.27;1.73;;;19.70;99.90;;;;;;4955442;29;20471;-82
2022/09/02 08:34:57;;;;;;;2.87;1.80;;;20.00;99.90;;;;;;4956110;28;20958;-82
2022/09/02 08:37:27;;;;;;;3.27;2.10;;;20.20;99.90;;;;;;4955626;28;20457;-80
2022/09/02 08:39:53;;;;;;;2.20;1.77;;;20.40;99.90;;;;;;4957185;29;20457;-80
2022/09/02 08:42:24;;;;;;;3.43;1.53;;;20.40;99.90;;;;;;4956367;29;21163;-81
2022/09/02 08:44:54;;;;;;;2.47;1.73;;;20.60;99.90;;;;;;4956816;29;20462;-81
2022/09/02 08:47:25;;;;;;;3.57;1.87;;;20.80;99.90;;;;;;4957467;29;20497;-81
2022/09/02 08:49:55;;;;;;;3.80;1.40;;;21.20;99.90;;;;;;4955657;29;20456;-81
2022/09/02 08:52:33;;;;;;;2.20;1.83;;;21.60;99.90;;;;;;4958605;29;20462;-81
2022/09/02 08:55:01;;;;;;;3.73;1.70;;;21.70;99.90;;;;;;4956233;29;20457;-81
2022/09/02 08:57:30;;;;;;;3.20;1.60;;;22.00;99.90;;;;;;4958218;28;20468;-81
2022/09/02 09:00:01;;;;;;;2.10;1.70;;;22.10;99.90;;;;;;4959098;29;20837;-81
2022/09/02 09:02:36;;;;;;;3.50;1.80;;;22.40;99.90;;;;;;4957919;29;20464;-81
2022/09/02 09:05:30;;;;;;;3.80;1.70;;;22.60;99.90;;;;;;4956109;29;20457;-81
2022/09/02 09:08:12;;;;;;;1.93;1.40;;;23.10;99.90;;;;;;4955930;28;21060;-81
2022/09/02 09:10:47;;;;;;;5.57;1.80;;;23.30;99.90;;;;;;4957166;29;20481;-81
2022/09/02 09:13:37;;;;;;;3.70;1.73;;;23.30;99.90;;;;;;4958435;29;20461;-81
2022/09/02 09:16:14;;;;;;;3.77;1.43;;;23.50;99.90;;;;;;4957122;29;20452;-81
2022/09/02 09:18:45;;;;;;;5.63;1.60;;;23.90;99.90;;;;;;4957481;28;20470;-81
2022/09/02 09:21:13;;;;;;;2.60;1.50;;;23.90;99.90;;;;;;4957833;29;20452;-81
2022/09/02 09:23:41;;;;;;;3.93;1.60;;;23.80;99.90;;;;;;4958031;29;20476;-81
2022/09/02 09:26:10;;;;;;;3.30;1.50;;;23.70;99.90;;;;;;4957192;29;20497;-81
2022/09/02 09:28:42;;;;;;;2.90;1.10;;;23.80;99.90;;;;;;4956486;28;20484;-81
2022/09/02 09:31:14;;;;;;;2.30;1.47;;;24.20;99.90;;;;;;4956999;29;20520;-81
2022/09/02 09:33:55;;;;;;;1.67;1.33;;;24.40;99.90;;;;;;4956773;29;20453;-82
2022/09/02 09:36:53;;;;;;;2.87;1.50;;;24.70;99.90;;;;;;4955434;28;20469;-81
2022/09/02 09:39:26;;;;;;;2.63;1.63;;;24.90;99.90;;;;;;4955458;28;20485;-82
2022/09/02 09:41:55;;;;;;;4.07;1.60;;;25.20;99.90;;;;;;4957221;29;20883;-82
2022/09/02 09:44:45;;;;;;;3.00;1.80;;;25.30;99.90;;;;;;4955442;29;20533;-82
2022/09/02 09:47:18;;;;;;;4.13;1.43;;;25.50;99.90;;;;;;4954052;28;20592;-81
2022/09/02 09:49:46;;;;;;;3.40;1.50;;;25.40;99.90;;;;;;4957799;28;20667;-82
2022/09/02 09:52:23;;;;;;;2.70;1.77;;;25.50;99.90;;;;;;4957554;29;21307;-81
2022/09/02 09:55:16;;;;;;;2.07;1.40;;;25.40;99.90;;;;;;4956408;29;20930;-82
2022/09/02 09:57:45;;;;;;;3.30;1.20;;;25.40;99.90;;;;;;4959049;28;20478;-81
2022/09/02 10:00:21;;;;;;;3.30;1.27;;;25.40;99.90;;;;;;4960022;29;20641;-81
2022/09/02 10:02:50;;;;;;;3.20;1.20;;;25.80;99.90;;;;;;4962032;29;20465;-81
2022/09/02 10:05:28;;;;;;;2.93;1.20;;;26.20;99.90;;;;;;4968706;29;20521;-82
2022/09/02 10:07:56;;;;;;;1.37;0.90;;;26.30;99.90;;;;;;4969077;28;21016;-81
2022/09/02 10:10:26;;;;;;;3.30;1.30;;;27.00;99.90;;;;;;4969384;29;20468;-82
2022/09/02 10:12:56;;;;;;;3.87;1.20;;;27.10;99.90;;;;;;4961248;29;20835;-82
2022/09/02 10:15:37;;;;;;;1.27;1.07;;;26.80;99.90;;;;;;4957151;29;20461;-82
2022/09/02 10:18:14;;;;;;;2.60;1.20;;;27.40;99.20;;;;;;4952817;28;20540;-81
2022/09/02 10:20:50;;;;;;;2.73;1.50;;;27.60;96.30;;;;;;4953516;29;20513;-82
2022/09/02 10:23:47;;;;;;;1.70;1.10;;;27.60;98.50;;;;;;4952551;29;20469;-82
2022/09/02 10:26:25;;;;;;;1.87;1.20;;;27.70;96.60;;;;;;4952222;28;20515;-82
2022/09/02 10:29:21;;;;;;;2.50;1.20;;;28.10;95.40;;;;;;4952721;28;20477;-82
2022/09/02 10:31:58;;;;;;;2.43;1.37;;;28.20;94.10;;;;;;4951814;29;20471;-81
2022/09/02 10:34:34;;;;;;;3.87;1.40;;;28.20;95.10;;;;;;4954684;28;20469;-82
2022/09/02 10:37:17;;;;;;;3.50;1.30;;;27.90;96.10;;;;;;4951806;29;20552;-82
2022/09/02 10:39:58;;;;;;;6.33;1.60;;;27.90;97.70;;;;;;4952258;28;20487;-82
2022/09/02 10:42:35;;;;;;;1.47;1.00;;;28.10;97.20;;;;;;4951263;29;20446;-82
2022/09/02 10:45:10;;;;;;;4.60;1.47;;;28.10;95.20;;;;;;4949818;29;20468;-82
2022/09/02 10:47:39;;;;;;;3.37;1.30;;;28.30;93.30;;;;;;4951990;28;20848;-82
2022/09/02 10:50:14;;;;;;;3.87;1.40;;;28.70;91.70;;;;;;4954392;29;20556;-82
2022/09/02 10:53:00;;;;;;;2.63;1.00;;;29.50;91.00;;;;;;4953921;29;20452;-82
2022/09/02 10:55:40;;;;;;;1.50;1.17;;;29.50;91.30;;;;;;4954407;29;20441;-82
2022/09/02 10:58:14;;;;;;;2.57;1.30;;;29.40;91.30;;;;;;4954345;28;20515;-82
2022/09/02 11:00:44;;;;;;;1.43;0.90;;;29.60;89.40;;;;;;4954706;29;20465;-82
2022/09/02 11:03:16;;;;;;;1.33;1.13;;;29.40;90.50;;;;;;4954439;29;20462;-82
2022/09/02 11:05:48;;;;;;;2.33;1.13;;;29.50;89.00;;;;;;4953194;28;20587;-82
2022/09/02 11:08:23;;;;;;;1.57;1.10;;;29.60;87.80;;;;;;4954654;28;20501;-82
2022/09/02 11:10:59;;;;;;;1.30;1.10;;;29.70;86.10;;;;;;4954335;29;20944;-82
2022/09/02 11:13:37;;;;;;;1.50;1.20;;;30.10;85.80;;;;;;4953063;29;20459;-82
2022/09/02 11:16:10;;;;;;;2.00;1.17;;;30.20;84.30;;;;;;4954173;29;20456;-82
2022/09/02 11:18:46;;;;;;;4.37;1.20;;;30.30;81.30;;;;;;4954762;28;20481;-82
2022/09/02 11:21:25;;;;;;;4.20;1.30;;;31.00;79.30;;;;;;4956890;29;20468;-82
2022/09/02 11:24:00;;;;;;;1.20;1.00;;;31.10;79.10;;;;;;4956196;29;20532;-82
2022/09/02 11:26:37;;;;;;;2.43;1.20;;;30.90;80.80;;;;;;4955814;29;21059;-81
2022/09/02 11:29:12;;;;;;;1.83;1.20;;;30.90;76.90;;;;;;4954645;28;20903;-83
2022/09/02 11:31:43;;;;;;;3.23;1.53;;;31.20;80.90;;;;;;4952961;28;20512;-83
2022/09/02 11:34:18;;;;;;;1.67;1.20;;;30.90;78.80;;;;;;4951856;29;20480;-83
2022/09/02 11:36:46;;;;;;;2.23;1.30;;;30.70;75.70;;;;;;4953049;29;20448;-84
2022/09/02 11:39:18;;;;;;;2.23;1.30;;;30.60;77.50;;;;;;4952864;28;20507;-83
2022/09/02 11:42:03;;;;;;;1.63;1.00;;;30.70;76.50;;;;;;4954109;29;20460;-83
2022/09/02 11:45:04;;;;;;;1.87;1.20;;;30.80;75.20;;;;;;4952834;29;20582;-84
2022/09/02 11:47:55;;;;;;;2.63;1.40;;;30.90;75.20;;;;;;4947471;28;20557;-84
2022/09/02 11:50:31;;;;;;;2.30;1.40;;;30.90;76.10;;;;;;4950685;29;20835;-83
2022/09/02 11:53:12;;;;;;;2.30;1.30;;;30.90;76.70;;;;;;4952543;29;21099;-83
2022/09/02 11:55:43;;;;;;;1.57;1.13;;;31.00;74.90;;;;;;4952134;29;20453;-84
2022/09/02 11:58:10;;;;;;;2.00;1.00;;;31.20;73.80;;;;;;4952513;28;20473;-83
2022/09/02 12:01:07;;;;;;;2.03;1.10;;;31.40;71.80;;;;;;4952883;29;20461;-83
2022/09/02 12:03:36;;;;;;;1.30;1.17;;;31.40;71.30;;;;;;4951922;29;20453;-84
2022/09/02 12:06:09;;;;;;;2.73;1.10;;;31.30;73.90;;;;;;4951591;29;20457;-83
2022/09/02 12:09:13;;;;;;;2.40;0.90;;;30.90;71.00;;;;;;4952990;28;20592;-83
2022/09/02 12:11:48;;;;;;;1.70;1.20;;;31.40;71.20;;;;;;4953053;29;20528;-83
2022/09/02 12:14:53;;;;;;;2.50;1.07;;;31.80;70.30;;;;;;4950090;29;20472;-83
2022/09/02 12:17:36;;;;;;;1.10;1.00;;;31.50;70.10;;;;;;4949916;28;20464;-83
2022/09/02 12:20:06;;;;;;;1.63;1.37;;;31.10;70.20;;;;;;4949468;29;20950;-83
2022/09/02 12:22:40;;;;;;;2.70;1.27;;;30.90;71.60;;;;;;4949855;29;20561;-83
2022/09/02 12:25:39;;;;;;;3.30;1.50;;;30.80;70.80;;;;;;4949502;29;20524;-82
2022/09/02 12:28:24;;;;;;;1.43;1.10;;;30.80;71.30;;;;;;4950302;28;20568;-82
2022/09/02 12:31:19;;;;;;;1.90;1.13;;;30.60;69.60;;;;;;4952175;29;20531;-83
2022/09/02 12:33:50;;;;;;;1.50;1.03;;;30.90;69.10;;;;;;4945003;28;20466;-83
2022/09/02 12:36:45;;;;;;;2.23;1.43;;;30.50;71.40;;;;;;4951778;29;20485;-83
2022/09/02 12:39:58;;;;;;;2.07;1.00;;;30.90;68.00;;;;;;4945716;28;20502;-82
2022/09/02 12:42:32;;;;;;;2.70;1.10;;;31.20;69.40;;;;;;4918024;28;20477;-83
2022/09/02 12:45:09;;;;;;;1.57;1.20;;;31.30;67.20;;;;;;4952637;29;20462;-83
2022/09/02 12:47:52;;;;;;;1.53;1.20;;;31.40;68.90;;;;;;4951576;28;20496;-82
2022/09/02 12:50:25;;;;;;;1.50;1.20;;;31.00;69.80;;;;;;4952803;29;20441;-83
2022/09/02 12:53:08;;;;;;;1.70;1.20;;;30.80;69.90;;;;;;4953363;29;20465;-83
2022/09/02 12:55:36;;;;;;;1.10;1.00;;;30.60;70.00;;;;;;4952685;29;20470;-83
2022/09/02 12:58:11;;;;;;;2.80;1.30;;;30.30;70.40;;;;;;4953612;28;21016;-82
2022/09/02 13:00:52;;;;;;;3.90;1.53;;;30.40;69.60;;;;;;4954143;29;20465;-82
2022/09/02 13:03:42;;;;;;;1.47;1.30;;;30.20;71.00;;;;;;4955941;29;20469;-82
2022/09/02 13:06:17;;;;;;;2.00;1.17;;;30.30;67.60;;;;;;4951864;29;20471;-82
2022/09/02 13:09:12;;;;;;;1.80;1.50;;;30.30;70.30;;;;;;4953888;28;20518;-82
2022/09/02 13:12:07;;;;;;;2.83;1.30;;;30.20;69.50;;;;;;4952681;28;20448;-83
2022/09/02 13:15:15;;;;;;;1.63;1.30;;;30.00;70.20;;;;;;4953950;29;20850;-82
2022/09/02 13:17:48;;;;;;;1.50;1.00;;;29.80;70.50;;;;;;4938246;28;20837;-82
2022/09/02 13:20:50;;;;;;;1.87;1.43;;;29.80;67.80;;;;;;4955778;29;20464;-82
2022/09/02 13:23:45;;;;;;;2.57;1.50;;;29.80;66.90;;;;;;4956041;29;20483;-82
2022/09/02 13:26:46;;;;;;;1.80;1.30;;;29.70;68.10;;;;;;4955565;29;20469;-82
2022/09/02 13:30:04;;;;;;;3.83;1.20;;;29.60;68.00;;;;;;4953332;28;20580;-82
2022/09/02 13:32:32;;;;;;;3.40;1.53;;;29.40;67.50;;;;;;4956603;29;20454;-82
2022/09/02 13:35:04;;;;;;;1.20;1.00;;;29.40;71.30;;;;;;4955535;29;20453;-82
2022/09/02 13:37:34;;;;;;;2.80;1.43;;;29.10;66.50;;;;;;4954630;28;20469;-82
2022/09/02 13:40:04;;;;;;;2.67;1.33;;;28.80;69.90;;;;;;4955468;29;20940;-82
2022/09/02 13:42:32;;;;;;;1.40;1.30;;;28.90;70.00;;;;;;4955957;29;20862;-82
2022/09/02 13:45:13;;;;;;;3.00;1.23;;;28.90;69.40;;;;;;4954228;29;20471;-82
2022/09/02 13:47:46;;;;;;;1.77;1.20;;;28.80;70.70;;;;;;4954430;28;20489;-82
2022/09/02 13:50:15;;;;;;;2.23;1.30;;;28.70;70.40;;;;;;4953880;29;20446;-82
2022/09/02 13:52:44;;;;;;;4.80;1.37;;;28.70;71.20;;;;;;4954223;29;20532;-82
2022/09/02 13:55:13;;;;;;;6.97;1.27;;;28.70;71.70;;;;;;4954080;28;20908;-82
2022/09/02 13:57:45;;;;;;;1.93;1.30;;;28.80;71.30;;;;;;4953977;28;20461;-82
2022/09/02 14:00:16;;;;;;;2.13;1.40;;;28.60;71.60;;;;;;4961081;29;20463;-82
2022/09/02 14:02:59;;;;;;;2.57;1.23;;;28.70;72.40;;;;;;4961706;29;20446;-82
2022/09/02 14:05:26;;;;;;;1.57;1.20;;;28.70;72.60;;;;;;4961382;29;20469;-82
2022/09/02 14:07:55;;;;;;;4.80;1.30;;;28.60;72.90;;;;;;4957469;28;20497;-82
2022/09/02 14:10:25;;;;;;;1.80;1.20;;;28.30;69.30;;;;;;4959992;29;20461;-82
2022/09/02 14:12:54;;;;;;;2.70;1.33;;;28.20;73.40;;;;;;4957414;29;20946;-82
2022/09/02 14:15:25;;;;;;;7.17;1.50;;;28.30;74.10;;;;;;4952632;28;20481;-82
2022/09/02 14:18:08;;;;;;;2.93;1.63;;;28.30;73.50;;;;;;4953514;28;20516;-82
2022/09/02 14:20:40;;;;;;;1.37;1.20;;;28.40;75.00;;;;;;4953769;29;20609;-82
2022/09/02 14:23:15;;;;;;;2.43;1.40;;;28.40;73.60;;;;;;4955987;28;21520;-82
2022/09/02 14:25:50;;;;;;;4.90;1.20;;;28.20;71.20;;;;;;4957974;29;20451;-82
2022/09/02 14:28:22;;;;;;;1.60;1.17;;;28.10;73.50;;;;;;4959031;28;20556;-83
2022/09/02 14:31:01;;;;;;;1.93;1.17;;;28.20;73.10;;;;;;4958365;29;20469;-83
2022/09/02 14:33:39;;;;;;;2.57;1.33;;;28.20;73.60;;;;;;4957265;29;20471;-83
2022/09/02 14:36:11;;;;;;;6.50;1.30;;;28.30;74.90;;;;;;4958345;29;20469;-82
2022/09/02 14:38:50;;;;;;;1.30;1.20;;;28.30;75.40;;;;;;4956861;28;20481;-83
2022/09/02 14:41:22;;;;;;;4.87;1.33;;;28.40;74.70;;;;;;4958325;29;20501;-82
2022/09/02 14:43:52;;;;;;;2.53;1.20;;;28.50;75.50;;;;;;4957491;29;20465;-82
2022/09/02 14:46:31;;;;;;;1.90;1.30;;;28.60;75.60;;;;;;4956511;29;20473;-82
2022/09/02 14:49:04;;;;;;;1.87;1.33;;;28.70;75.60;;;;;;4957505;28;20612;-83
2022/09/02 14:51:45;;;;;;;4.07;1.30;;;28.80;77.20;;;;;;4958096;29;20465;-82
2022/09/02 14:54:12;;;;;;;2.60;1.40;;;28.80;76.40;;;;;;4956970;29;20452;-83
2022/09/02 14:56:50;;;;;;;2.50;1.23;;;28.90;76.70;;;;;;4957866;29;20461;-83
2022/09/02 14:59:19;;;;;;;1.63;1.33;;;28.90;76.20;;;;;;4957744;28;20933;-83
2022/09/02 15:01:49;;;;;;;5.23;1.33;;;29.00;76.50;;;;;;4957950;29;20469;-83
2022/09/02 15:04:18;;;;;;;4.43;1.60;;;29.00;75.30;;;;;;4957057;29;20898;-83
2022/09/02 15:06:45;;;;;;;2.80;1.50;;;29.10;74.80;;;;;;4957683;29;20798;-82
2022/09/02 15:09:14;;;;;;;5.17;1.70;;;29.10;74.20;;;;;;4957356;28;20508;-82
2022/09/02 15:11:44;;;;;;;1.77;1.20;;;29.20;75.70;;;;;;4957589;29;20461;-82
2022/09/02 15:14:11;;;;;;;2.70;1.30;;;29.20;77.70;;;;;;4956645;29;20458;-82
2022/09/02 15:16:40;;;;;;;2.63;1.20;;;29.30;75.70;;;;;;4957633;29;20793;-82
2022/09/02 15:19:06;;;;;;;3.77;1.50;;;29.40;74.50;;;;;;4957080;28;20523;-82
2022/09/02 15:21:33;;;;;;;8.10;1.60;;;29.40;77.00;;;;;;4957827;29;20556;-82
2022/09/02 15:24:00;;;;;;;1.80;1.30;;;29.50;75.90;;;;;;4957360;29;20842;-82
2022/09/02 15:26:27;;;;;;;1.67;1.20;;;29.40;74.00;;;;;;4958091;29;20528;-82
2022/09/02 15:28:54;;;;;;;1.83;1.27;;;29.20;76.40;;;;;;4957946;28;20511;-83
2022/09/02 15:31:21;;;;;;;2.10;1.20;;;29.30;75.20;;;;;;4957233;29;20465;-83
2022/09/02 15:33:51;;;;;;;4.23;1.30;;;29.10;72.90;;;;;;4956396;28;21037;-83
2022/09/02 15:36:22;;;;;;;2.20;1.30;;;28.80;73.90;;;;;;4957638;29;20466;-83
2022/09/02 15:38:49;;;;;;;2.27;1.37;;;28.50;75.10;;;;;;4956905;28;20501;-83
2022/09/02 15:41:18;;;;;;;2.50;1.20;;;28.70;75.80;;;;;;4956375;29;20552;-83
2022/09/02 15:43:46;;;;;;;1.87;1.30;;;28.90;77.00;;;;;;4956929;29;20817;-83
2022/09/02 15:46:18;;;;;;;2.00;1.33;;;29.00;76.30;;;;;;4956288;29;20573;-83
2022/09/02 15:48:45;;;;;;;4.40;1.53;;;29.10;76.50;;;;;;4956546;28;20581;-83
2022/09/02 15:51:15;;;;;;;1.70;1.40;;;29.20;76.20;;;;;;4956336;29;20461;-83
2022/09/02 15:53:42;;;;;;;3.70;1.57;;;29.30;76.10;;;;;;4956080;29;20461;-83
2022/09/02 15:56:16;;;;;;;1.53;1.13;;;29.30;77.10;;;;;;4955245;28;20865;-83
2022/09/02 15:58:43;;;;;;;1.43;1.30;;;29.40;77.50;;;;;;4956199;28;20505;-83
2022/09/02 16:01:10;;;;;;;4.97;1.53;;;29.40;75.80;;;;;;4955755;29;20976;-83
2022/09/02 16:03:37;;;;;;;1.93;1.10;;;29.50;76.60;;;;;;4956514;29;20475;-82
2022/09/02 16:06:06;;;;;;;1.50;1.07;;;29.50;75.00;;;;;;4957442;29;20521;-82
2022/09/02 16:08:35;;;;;;;1.90;1.20;;;29.60;76.10;;;;;;4957495;28;20509;-82
2022/09/02 16:11:07;;;;;;;6.27;1.30;;;29.60;76.20;;;;;;4957618;29;20533;-82
2022/09/02 16:13:35;;;;;;;2.90;1.10;;;29.60;75.00;;;;;;4957882;29;20503;-83
2022/09/02 16:16:04;;;;;;;2.30;1.27;;;29.60;74.20;;;;;;4955877;29;20488;-82
2022/09/02 16:18:32;;;;;;;1.60;1.17;;;29.50;73.70;;;;;;4958108;28;20474;-82
2022/09/02 16:20:59;;;;;;;2.90;1.17;;;29.10;74.20;;;;;;4958851;29;20465;-82
2022/09/02 16:23:26;;;;;;;2.03;1.30;;;29.00;74.80;;;;;;4959419;29;20473;-82
2022/09/02 16:26:23;;;;;;;3.40;1.40;;;28.90;74.10;;;;;;4963551;28;20457;-82
2022/09/02 16:28:51;;;;;;;1.93;1.60;;;28.80;73.40;;;;;;4959973;28;20525;-82
2022/09/02 16:31:20;;;;;;;2.90;1.40;;;28.50;75.50;;;;;;4973492;29;20469;-82
2022/09/02 16:33:53;;;;;;;2.33;1.27;;;28.50;77.80;;;;;;4973995;29;20492;-82
2022/09/02 16:36:20;;;;;;;2.27;1.20;;;28.40;77.40;;;;;;4972936;29;20458;-82
2022/09/02 16:38:47;;;;;;;5.07;1.40;;;28.30;75.60;;;;;;4964284;28;20477;-82
2022/09/02 16:41:27;;;;;;;2.03;1.43;;;28.10;76.00;;;;;;4957046;29;20461;-83
2022/09/02 16:43:54;;;;;;;1.87;1.40;;;28.00;75.50;;;;;;4955527;29;20946;-83
2022/09/02 16:46:21;;;;;;;3.20;1.50;;;27.90;76.30;;;;;;4954709;28;20466;-82
2022/09/02 16:48:48;;;;;;;2.00;1.57;;;27.80;76.40;;;;;;4955532;28;20507;-83
2022/09/02 16:51:16;;;;;;;1.30;1.20;;;27.60;78.40;;;;;;4955450;29;20519;-82
2022/09/02 16:53:45;;;;;;;3.00;1.60;;;27.40;79.20;;;;;;4955214;29;20457;-82
2022/09/02 16:56:12;;;;;;;3.23;1.50;;;27.30;81.20;;;;;;4952273;29;20481;-82
2022/09/02 16:58:41;;;;;;;2.23;1.20;;;27.10;84.80;;;;;;4944720;29;20474;-82
2022/09/02 17:01:11;;;;;;;2.97;1.57;;;26.90;81.80;;;;;;4943458;28;20462;-82
2022/09/02 17:03:40;;;;;;;4.20;1.40;;;26.70;83.20;;;;;;4949770;29;20942;-82
2022/09/02 17:06:08;;;;;;;1.93;1.50;;;26.50;82.90;;;;;;4943388;29;20465;-82
2022/09/02 17:08:36;;;;;;;2.50;1.43;;;26.40;83.50;;;;;;4944062;29;20506;-82